sensor_id;sensor_type;location;lat;lon;timestamp;P1;durP1;ratioP1;P2;durP2;ratioP2
25531;SDS011;13429;48.816;9.118;2022-07-23T00:00:16;10.23;;;5.32;;
25531;SDS011;13429;48.816;9.118;2022-07-23T00:02:42;8.48;;;4.07;;
25531;SDS011;13429;48.816;9.118;2022-07-23T00:05:08;6.20;;;4.18;;
25531;SDS011;13429;48.816;9.118;2022-07-23T00:07:34;5.25;;;4.20;;
25531;SDS011;13429;48.816;9.118;2022-07-23T00:10:00;7.40;;;5.00;;
25531;SDS011;13429;48.816;9.118;2022-07-23T00:12:26;6.00;;;4.40;;
25531;SDS011;13429;48.816;9.118;2022-07-23T00:14:52;5.28;;;4.00;;
25531;SDS011;13429;48.816;9.118;2022-07-23T00:17:18;5.13;;;4.00;;
25531;SDS011;13429;48.816;9.118;2022-07-23T00:19:44;4.70;;;4.15;;
25531;SDS011;13429;48.816;9.118;2022-07-23T00:22:10;5.05;;;4.28;;
25531;SDS011;13429;48.816;9.118;2022-07-23T00:24:36;5.28;;;4.43;;
25531;SDS011;13429;48.816;9.118;2022-07-23T00:27:02;9.25;;;4.53;;
25531;SDS011;13429;48.816;9.118;2022-07-23T00:29:28;5.85;;;4.65;;
25531;SDS011;13429;48.816;9.118;2022-07-23T00:31:54;5.88;;;4.32;;
25531;SDS011;13429;48.816;9.118;2022-07-23T00:34:21;10.95;;;4.85;;
25531;SDS011;13429;48.816;9.118;2022-07-23T00:36:46;6.30;;;4.43;;
25531;SDS011;13429;48.816;9.118;2022-07-23T00:39:12;8.75;;;4.25;;
25531;SDS011;13429;48.816;9.118;2022-07-23T00:41:38;6.32;;;4.28;;
25531;SDS011;13429;48.816;9.118;2022-07-23T00:44:14;4.35;;;3.92;;
25531;SDS011;13429;48.816;9.118;2022-07-23T00:46:44;6.53;;;4.13;;
25531;SDS011;13429;48.816;9.118;2022-07-23T00:49:11;7.40;;;4.10;;
25531;SDS011;13429;48.816;9.118;2022-07-23T00:51:37;9.70;;;4.50;;
25531;SDS011;13429;48.816;9.118;2022-07-23T00:54:03;5.13;;;4.22;;
25531;SDS011;13429;48.816;9.118;2022-07-23T00:56:29;7.15;;;4.00;;
25531;SDS011;13429;48.816;9.118;2022-07-23T00:58:55;4.82;;;4.10;;
25531;SDS011;13429;48.816;9.118;2022-07-23T01:01:22;4.55;;;4.07;;
25531;SDS011;13429;48.816;9.118;2022-07-23T01:03:48;7.25;;;4.88;;
25531;SDS011;13429;48.816;9.118;2022-07-23T01:06:14;5.00;;;4.20;;
25531;SDS011;13429;48.816;9.118;2022-07-23T01:08:40;7.90;;;4.72;;
25531;SDS011;13429;48.816;9.118;2022-07-23T01:11:07;5.68;;;4.25;;
25531;SDS011;13429;48.816;9.118;2022-07-23T01:13:32;5.95;;;4.70;;
25531;SDS011;13429;48.816;9.118;2022-07-23T01:15:59;5.60;;;4.65;;
25531;SDS011;13429;48.816;9.118;2022-07-23T01:18:25;5.60;;;3.88;;
25531;SDS011;13429;48.816;9.118;2022-07-23T01:20:51;5.05;;;3.83;;
25531;SDS011;13429;48.816;9.118;2022-07-23T01:23:17;6.90;;;4.72;;
25531;SDS011;13429;48.816;9.118;2022-07-23T01:25:49;5.35;;;4.15;;
25531;SDS011;13429;48.816;9.118;2022-07-23T01:28:17;7.43;;;4.82;;
25531;SDS011;13429;48.816;9.118;2022-07-23T01:30:44;7.03;;;4.90;;
25531;SDS011;13429;48.816;9.118;2022-07-23T01:33:10;7.28;;;4.78;;
25531;SDS011;13429;48.816;9.118;2022-07-23T01:35:36;6.18;;;4.57;;
25531;SDS011;13429;48.816;9.118;2022-07-23T01:38:02;5.43;;;4.50;;
25531;SDS011;13429;48.816;9.118;2022-07-23T01:40:28;4.10;;;3.65;;
25531;SDS011;13429;48.816;9.118;2022-07-23T01:42:54;7.05;;;5.28;;
25531;SDS011;13429;48.816;9.118;2022-07-23T01:45:20;4.43;;;3.80;;
25531;SDS011;13429;48.816;9.118;2022-07-23T01:47:46;4.47;;;4.07;;
25531;SDS011;13429;48.816;9.118;2022-07-23T01:50:12;7.13;;;4.82;;
25531;SDS011;13429;48.816;9.118;2022-07-23T01:52:38;5.07;;;4.45;;
25531;SDS011;13429;48.816;9.118;2022-07-23T01:55:05;4.88;;;3.90;;
25531;SDS011;13429;48.816;9.118;2022-07-23T01:57:31;5.25;;;4.75;;
25531;SDS011;13429;48.816;9.118;2022-07-23T01:59:57;6.35;;;4.43;;
25531;SDS011;13429;48.816;9.118;2022-07-23T02:02:23;5.93;;;4.75;;
25531;SDS011;13429;48.816;9.118;2022-07-23T02:04:49;6.25;;;4.70;;
25531;SDS011;13429;48.816;9.118;2022-07-23T02:07:15;6.65;;;4.82;;
25531;SDS011;13429;48.816;9.118;2022-07-23T02:09:41;5.57;;;4.38;;
25531;SDS011;13429;48.816;9.118;2022-07-23T02:12:07;6.35;;;3.90;;
25531;SDS011;13429;48.816;9.118;2022-07-23T02:14:33;4.97;;;4.20;;
25531;SDS011;13429;48.816;9.118;2022-07-23T02:16:59;6.25;;;4.50;;
25531;SDS011;13429;48.816;9.118;2022-07-23T02:19:25;6.43;;;4.75;;
25531;SDS011;13429;48.816;9.118;2022-07-23T02:21:51;7.07;;;4.68;;
25531;SDS011;13429;48.816;9.118;2022-07-23T02:24:19;7.28;;;5.25;;
25531;SDS011;13429;48.816;9.118;2022-07-23T02:26:45;6.55;;;4.93;;
25531;SDS011;13429;48.816;9.118;2022-07-23T02:29:11;4.85;;;4.35;;
25531;SDS011;13429;48.816;9.118;2022-07-23T02:31:37;7.45;;;4.30;;
25531;SDS011;13429;48.816;9.118;2022-07-23T02:34:03;6.38;;;4.97;;
25531;SDS011;13429;48.816;9.118;2022-07-23T02:36:29;6.68;;;4.95;;
25531;SDS011;13429;48.816;9.118;2022-07-23T02:38:55;5.95;;;4.82;;
25531;SDS011;13429;48.816;9.118;2022-07-23T02:41:21;9.18;;;4.60;;
25531;SDS011;13429;48.816;9.118;2022-07-23T02:43:47;6.50;;;5.13;;
25531;SDS011;13429;48.816;9.118;2022-07-23T02:46:13;4.90;;;4.28;;
25531;SDS011;13429;48.816;9.118;2022-07-23T02:48:39;5.15;;;3.95;;
25531;SDS011;13429;48.816;9.118;2022-07-23T02:51:06;6.07;;;4.70;;
25531;SDS011;13429;48.816;9.118;2022-07-23T02:53:32;7.13;;;5.37;;
25531;SDS011;13429;48.816;9.118;2022-07-23T02:55:57;6.45;;;4.95;;
25531;SDS011;13429;48.816;9.118;2022-07-23T02:58:23;7.82;;;5.63;;
25531;SDS011;13429;48.816;9.118;2022-07-23T03:00:51;5.38;;;4.88;;
25531;SDS011;13429;48.816;9.118;2022-07-23T03:03:17;5.22;;;4.70;;
25531;SDS011;13429;48.816;9.118;2022-07-23T03:05:43;5.53;;;4.97;;
25531;SDS011;13429;48.816;9.118;2022-07-23T03:08:09;5.30;;;4.80;;
25531;SDS011;13429;48.816;9.118;2022-07-23T03:10:35;5.45;;;4.80;;
25531;SDS011;13429;48.816;9.118;2022-07-23T03:13:01;6.05;;;4.55;;
25531;SDS011;13429;48.816;9.118;2022-07-23T03:15:27;5.97;;;4.70;;
25531;SDS011;13429;48.816;9.118;2022-07-23T03:17:53;5.80;;;4.95;;
25531;SDS011;13429;48.816;9.118;2022-07-23T03:20:19;5.88;;;4.95;;
25531;SDS011;13429;48.816;9.118;2022-07-23T03:22:45;6.15;;;4.68;;
25531;SDS011;13429;48.816;9.118;2022-07-23T03:25:11;5.75;;;4.68;;
25531;SDS011;13429;48.816;9.118;2022-07-23T03:27:37;8.15;;;4.30;;
25531;SDS011;13429;48.816;9.118;2022-07-23T03:30:03;5.47;;;4.90;;
25531;SDS011;13429;48.816;9.118;2022-07-23T03:32:29;6.07;;;5.05;;
25531;SDS011;13429;48.816;9.118;2022-07-23T03:34:56;5.32;;;4.70;;
25531;SDS011;13429;48.816;9.118;2022-07-23T03:37:22;6.00;;;5.13;;
25531;SDS011;13429;48.816;9.118;2022-07-23T03:39:48;5.55;;;4.80;;
25531;SDS011;13429;48.816;9.118;2022-07-23T03:42:14;4.80;;;4.30;;
25531;SDS011;13429;48.816;9.118;2022-07-23T03:44:40;6.13;;;4.78;;
25531;SDS011;13429;48.816;9.118;2022-07-23T03:47:06;6.63;;;5.22;;
25531;SDS011;13429;48.816;9.118;2022-07-23T03:49:32;5.07;;;4.53;;
25531;SDS011;13429;48.816;9.118;2022-07-23T03:51:58;8.02;;;4.43;;
25531;SDS011;13429;48.816;9.118;2022-07-23T03:54:24;6.40;;;4.78;;
25531;SDS011;13429;48.816;9.118;2022-07-23T03:56:50;6.32;;;5.40;;
25531;SDS011;13429;48.816;9.118;2022-07-23T03:59:17;8.57;;;5.47;;
25531;SDS011;13429;48.816;9.118;2022-07-23T04:01:43;6.03;;;4.65;;
25531;SDS011;13429;48.816;9.118;2022-07-23T04:04:09;6.55;;;5.63;;
25531;SDS011;13429;48.816;9.118;2022-07-23T04:06:35;6.18;;;4.85;;
25531;SDS011;13429;48.816;9.118;2022-07-23T04:09:01;6.93;;;5.18;;
25531;SDS011;13429;48.816;9.118;2022-07-23T04:11:27;6.13;;;5.22;;
25531;SDS011;13429;48.816;9.118;2022-07-23T04:13:53;6.15;;;4.93;;
25531;SDS011;13429;48.816;9.118;2022-07-23T04:16:19;6.20;;;5.60;;
25531;SDS011;13429;48.816;9.118;2022-07-23T04:18:45;6.32;;;4.85;;
25531;SDS011;13429;48.816;9.118;2022-07-23T04:21:11;6.82;;;5.20;;
25531;SDS011;13429;48.816;9.118;2022-07-23T04:23:37;7.20;;;5.40;;
25531;SDS011;13429;48.816;9.118;2022-07-23T04:26:03;6.47;;;4.78;;
25531;SDS011;13429;48.816;9.118;2022-07-23T04:28:29;11.55;;;5.28;;
25531;SDS011;13429;48.816;9.118;2022-07-23T04:30:58;8.13;;;5.65;;
25531;SDS011;13429;48.816;9.118;2022-07-23T04:33:24;7.30;;;5.65;;
25531;SDS011;13429;48.816;9.118;2022-07-23T04:35:50;7.32;;;5.80;;
25531;SDS011;13429;48.816;9.118;2022-07-23T04:38:16;6.75;;;5.10;;
25531;SDS011;13429;48.816;9.118;2022-07-23T04:40:42;6.70;;;5.32;;
25531;SDS011;13429;48.816;9.118;2022-07-23T04:43:08;7.55;;;5.57;;
25531;SDS011;13429;48.816;9.118;2022-07-23T04:45:34;6.65;;;5.60;;
25531;SDS011;13429;48.816;9.118;2022-07-23T04:48:00;5.47;;;4.97;;
25531;SDS011;13429;48.816;9.118;2022-07-23T04:50:26;6.25;;;5.20;;
25531;SDS011;13429;48.816;9.118;2022-07-23T04:52:52;6.95;;;5.40;;
25531;SDS011;13429;48.816;9.118;2022-07-23T04:55:18;6.03;;;4.95;;
25531;SDS011;13429;48.816;9.118;2022-07-23T04:57:44;8.07;;;5.18;;
25531;SDS011;13429;48.816;9.118;2022-07-23T05:00:10;8.73;;;5.60;;
25531;SDS011;13429;48.816;9.118;2022-07-23T05:02:36;7.05;;;5.72;;
25531;SDS011;13429;48.816;9.118;2022-07-23T05:05:02;6.13;;;5.53;;
25531;SDS011;13429;48.816;9.118;2022-07-23T05:07:28;6.47;;;5.25;;
25531;SDS011;13429;48.816;9.118;2022-07-23T05:09:54;7.60;;;5.45;;
25531;SDS011;13429;48.816;9.118;2022-07-23T05:12:20;6.03;;;5.40;;
25531;SDS011;13429;48.816;9.118;2022-07-23T05:14:46;6.60;;;5.30;;
25531;SDS011;13429;48.816;9.118;2022-07-23T05:17:12;5.93;;;5.20;;
25531;SDS011;13429;48.816;9.118;2022-07-23T05:19:38;9.18;;;5.28;;
25531;SDS011;13429;48.816;9.118;2022-07-23T05:22:04;7.25;;;5.43;;
25531;SDS011;13429;48.816;9.118;2022-07-23T05:24:30;6.75;;;5.45;;
25531;SDS011;13429;48.816;9.118;2022-07-23T05:26:56;6.05;;;5.07;;
25531;SDS011;13429;48.816;9.118;2022-07-23T05:29:22;6.28;;;5.50;;
25531;SDS011;13429;48.816;9.118;2022-07-23T05:31:48;5.45;;;4.95;;
25531;SDS011;13429;48.816;9.118;2022-07-23T05:34:14;6.05;;;5.40;;
25531;SDS011;13429;48.816;9.118;2022-07-23T05:36:40;5.68;;;5.07;;
25531;SDS011;13429;48.816;9.118;2022-07-23T05:39:06;6.40;;;5.05;;
25531;SDS011;13429;48.816;9.118;2022-07-23T05:41:32;6.20;;;5.57;;
25531;SDS011;13429;48.816;9.118;2022-07-23T05:43:58;5.68;;;5.05;;
25531;SDS011;13429;48.816;9.118;2022-07-23T05:46:24;7.40;;;5.45;;
25531;SDS011;13429;48.816;9.118;2022-07-23T05:48:50;6.43;;;5.35;;
25531;SDS011;13429;48.816;9.118;2022-07-23T05:51:23;8.10;;;5.28;;
25531;SDS011;13429;48.816;9.118;2022-07-23T05:53:49;6.78;;;4.97;;
25531;SDS011;13429;48.816;9.118;2022-07-23T05:56:15;6.80;;;6.03;;
25531;SDS011;13429;48.816;9.118;2022-07-23T05:58:41;7.93;;;4.70;;
25531;SDS011;13429;48.816;9.118;2022-07-23T06:01:07;7.95;;;5.70;;
25531;SDS011;13429;48.816;9.118;2022-07-23T06:03:34;6.70;;;5.35;;
25531;SDS011;13429;48.816;9.118;2022-07-23T06:05:59;6.15;;;5.07;;
25531;SDS011;13429;48.816;9.118;2022-07-23T06:08:25;6.28;;;5.13;;
25531;SDS011;13429;48.816;9.118;2022-07-23T06:10:51;7.95;;;5.38;;
25531;SDS011;13429;48.816;9.118;2022-07-23T06:13:18;8.10;;;4.82;;
25531;SDS011;13429;48.816;9.118;2022-07-23T06:15:44;6.13;;;5.13;;
25531;SDS011;13429;48.816;9.118;2022-07-23T06:18:10;7.13;;;5.70;;
25531;SDS011;13429;48.816;9.118;2022-07-23T06:20:36;8.30;;;6.20;;
25531;SDS011;13429;48.816;9.118;2022-07-23T06:23:02;8.02;;;5.70;;
25531;SDS011;13429;48.816;9.118;2022-07-23T06:25:29;7.10;;;5.30;;
25531;SDS011;13429;48.816;9.118;2022-07-23T06:27:55;7.90;;;5.72;;
25531;SDS011;13429;48.816;9.118;2022-07-23T06:30:21;8.77;;;5.32;;
25531;SDS011;13429;48.816;9.118;2022-07-23T06:32:47;14.48;;;5.55;;
25531;SDS011;13429;48.816;9.118;2022-07-23T06:35:14;6.43;;;5.28;;
25531;SDS011;13429;48.816;9.118;2022-07-23T06:37:40;6.10;;;5.20;;
25531;SDS011;13429;48.816;9.118;2022-07-23T06:40:06;9.05;;;5.38;;
25531;SDS011;13429;48.816;9.118;2022-07-23T06:42:32;6.70;;;5.03;;
25531;SDS011;13429;48.816;9.118;2022-07-23T06:44:58;6.63;;;5.57;;
25531;SDS011;13429;48.816;9.118;2022-07-23T06:47:24;6.82;;;5.35;;
25531;SDS011;13429;48.816;9.118;2022-07-23T06:49:50;6.43;;;5.05;;
25531;SDS011;13429;48.816;9.118;2022-07-23T06:52:16;6.32;;;5.38;;
25531;SDS011;13429;48.816;9.118;2022-07-23T06:54:42;7.72;;;5.63;;
25531;SDS011;13429;48.816;9.118;2022-07-23T06:57:08;6.88;;;5.65;;
25531;SDS011;13429;48.816;9.118;2022-07-23T06:59:34;6.32;;;4.82;;
25531;SDS011;13429;48.816;9.118;2022-07-23T07:02:03;4.78;;;4.22;;
25531;SDS011;13429;48.816;9.118;2022-07-23T07:04:29;7.38;;;5.88;;
25531;SDS011;13429;48.816;9.118;2022-07-23T07:06:56;7.20;;;5.40;;
25531;SDS011;13429;48.816;9.118;2022-07-23T07:09:22;6.07;;;5.18;;
25531;SDS011;13429;48.816;9.118;2022-07-23T07:11:48;6.93;;;5.38;;
25531;SDS011;13429;48.816;9.118;2022-07-23T07:14:15;7.40;;;5.75;;
25531;SDS011;13429;48.816;9.118;2022-07-23T07:16:40;9.52;;;5.75;;
25531;SDS011;13429;48.816;9.118;2022-07-23T07:19:06;7.40;;;5.68;;
25531;SDS011;13429;48.816;9.118;2022-07-23T07:21:32;7.47;;;5.63;;
25531;SDS011;13429;48.816;9.118;2022-07-23T07:23:58;9.05;;;6.63;;
25531;SDS011;13429;48.816;9.118;2022-07-23T07:26:25;8.05;;;6.30;;
25531;SDS011;13429;48.816;9.118;2022-07-23T07:28:51;6.78;;;6.07;;
25531;SDS011;13429;48.816;9.118;2022-07-23T07:31:17;7.05;;;5.70;;
25531;SDS011;13429;48.816;9.118;2022-07-23T07:33:43;7.10;;;6.40;;
25531;SDS011;13429;48.816;9.118;2022-07-23T07:36:09;10.18;;;7.03;;
25531;SDS011;13429;48.816;9.118;2022-07-23T07:38:35;11.23;;;7.00;;
25531;SDS011;13429;48.816;9.118;2022-07-23T07:41:01;8.63;;;6.43;;
25531;SDS011;13429;48.816;9.118;2022-07-23T07:43:27;10.35;;;6.28;;
25531;SDS011;13429;48.816;9.118;2022-07-23T07:45:53;8.35;;;6.60;;
25531;SDS011;13429;48.816;9.118;2022-07-23T07:48:19;9.02;;;6.82;;
25531;SDS011;13429;48.816;9.118;2022-07-23T07:50:45;9.25;;;7.22;;
25531;SDS011;13429;48.816;9.118;2022-07-23T07:53:11;7.68;;;6.93;;
25531;SDS011;13429;48.816;9.118;2022-07-23T07:55:37;9.18;;;6.57;;
25531;SDS011;13429;48.816;9.118;2022-07-23T07:58:02;10.77;;;7.05;;
25531;SDS011;13429;48.816;9.118;2022-07-23T08:00:29;10.35;;;6.70;;
25531;SDS011;13429;48.816;9.118;2022-07-23T08:02:55;8.55;;;7.03;;
25531;SDS011;13429;48.816;9.118;2022-07-23T08:05:21;11.45;;;7.07;;
25531;SDS011;13429;48.816;9.118;2022-07-23T08:07:48;8.13;;;6.15;;
25531;SDS011;13429;48.816;9.118;2022-07-23T08:10:14;8.75;;;6.60;;
25531;SDS011;13429;48.816;9.118;2022-07-23T08:12:41;7.63;;;6.55;;
25531;SDS011;13429;48.816;9.118;2022-07-23T08:15:07;10.18;;;6.85;;
25531;SDS011;13429;48.816;9.118;2022-07-23T08:17:34;9.20;;;6.60;;
25531;SDS011;13429;48.816;9.118;2022-07-23T08:20:00;7.63;;;5.82;;
25531;SDS011;13429;48.816;9.118;2022-07-23T08:22:40;6.53;;;5.85;;
25531;SDS011;13429;48.816;9.118;2022-07-23T08:25:06;7.13;;;5.93;;
25531;SDS011;13429;48.816;9.118;2022-07-23T08:27:32;7.45;;;6.20;;
25531;SDS011;13429;48.816;9.118;2022-07-23T08:29:58;8.05;;;5.50;;
25531;SDS011;13429;48.816;9.118;2022-07-23T08:32:24;6.13;;;5.53;;
25531;SDS011;13429;48.816;9.118;2022-07-23T08:34:50;6.30;;;5.57;;
25531;SDS011;13429;48.816;9.118;2022-07-23T08:37:16;6.05;;;5.18;;
25531;SDS011;13429;48.816;9.118;2022-07-23T08:39:42;7.28;;;5.55;;
25531;SDS011;13429;48.816;9.118;2022-07-23T08:42:08;6.88;;;4.97;;
25531;SDS011;13429;48.816;9.118;2022-07-23T08:44:35;5.20;;;4.70;;
25531;SDS011;13429;48.816;9.118;2022-07-23T08:47:01;5.80;;;5.20;;
25531;SDS011;13429;48.816;9.118;2022-07-23T08:49:27;5.18;;;4.65;;
25531;SDS011;13429;48.816;9.118;2022-07-23T08:51:53;5.03;;;4.53;;
25531;SDS011;13429;48.816;9.118;2022-07-23T08:54:20;5.22;;;4.13;;
25531;SDS011;13429;48.816;9.118;2022-07-23T08:56:48;6.80;;;4.90;;
25531;SDS011;13429;48.816;9.118;2022-07-23T08:59:14;7.05;;;4.70;;
25531;SDS011;13429;48.816;9.118;2022-07-23T09:01:40;6.85;;;5.05;;
25531;SDS011;13429;48.816;9.118;2022-07-23T09:04:06;5.72;;;4.75;;
25531;SDS011;13429;48.816;9.118;2022-07-23T09:06:31;5.50;;;4.93;;
25531;SDS011;13429;48.816;9.118;2022-07-23T09:08:59;5.10;;;4.53;;
25531;SDS011;13429;48.816;9.118;2022-07-23T09:11:45;6.90;;;5.03;;
25531;SDS011;13429;48.816;9.118;2022-07-23T09:14:11;6.47;;;5.10;;
25531;SDS011;13429;48.816;9.118;2022-07-23T09:16:37;5.22;;;4.63;;
25531;SDS011;13429;48.816;9.118;2022-07-23T09:19:04;6.07;;;4.38;;
25531;SDS011;13429;48.816;9.118;2022-07-23T09:26:24;7.65;;;4.93;;
25531;SDS011;13429;48.816;9.118;2022-07-23T09:28:51;6.13;;;5.13;;
25531;SDS011;13429;48.816;9.118;2022-07-23T09:31:18;8.68;;;5.40;;
25531;SDS011;13429;48.816;9.118;2022-07-23T09:33:44;6.05;;;5.32;;
25531;SDS011;13429;48.816;9.118;2022-07-23T09:36:10;5.35;;;4.85;;
25531;SDS011;13429;48.816;9.118;2022-07-23T09:38:47;9.10;;;5.18;;
25531;SDS011;13429;48.816;9.118;2022-07-23T09:41:13;4.95;;;4.10;;
25531;SDS011;13429;48.816;9.118;2022-07-23T09:43:39;6.90;;;5.00;;
25531;SDS011;13429;48.816;9.118;2022-07-23T09:46:21;6.15;;;4.85;;
25531;SDS011;13429;48.816;9.118;2022-07-23T09:48:49;6.50;;;5.00;;
25531;SDS011;13429;48.816;9.118;2022-07-23T09:51:16;5.30;;;4.22;;
25531;SDS011;13429;48.816;9.118;2022-07-23T09:53:59;7.45;;;5.05;;
25531;SDS011;13429;48.816;9.118;2022-07-23T09:56:25;5.70;;;4.53;;
25531;SDS011;13429;48.816;9.118;2022-07-23T09:58:52;5.47;;;4.82;;
25531;SDS011;13429;48.816;9.118;2022-07-23T10:01:32;5.32;;;4.45;;
25531;SDS011;13429;48.816;9.118;2022-07-23T10:03:59;6.50;;;4.65;;
25531;SDS011;13429;48.816;9.118;2022-07-23T10:06:25;6.07;;;5.43;;
25531;SDS011;13429;48.816;9.118;2022-07-23T10:08:51;7.30;;;4.97;;
25531;SDS011;13429;48.816;9.118;2022-07-23T10:11:22;7.90;;;6.15;;
25531;SDS011;13429;48.816;9.118;2022-07-23T10:13:49;4.78;;;4.25;;
25531;SDS011;13429;48.816;9.118;2022-07-23T10:16:18;13.70;;;6.13;;
25531;SDS011;13429;48.816;9.118;2022-07-23T10:18:45;10.50;;;6.93;;
25531;SDS011;13429;48.816;9.118;2022-07-23T10:21:11;11.23;;;6.35;;
25531;SDS011;13429;48.816;9.118;2022-07-23T10:23:45;19.48;;;10.05;;
25531;SDS011;13429;48.816;9.118;2022-07-23T10:26:24;10.82;;;7.13;;
25531;SDS011;13429;48.816;9.118;2022-07-23T10:31:28;14.05;;;7.82;;
25531;SDS011;13429;48.816;9.118;2022-07-23T10:34:12;11.43;;;7.05;;
25531;SDS011;13429;48.816;9.118;2022-07-23T10:36:57;8.10;;;5.60;;
25531;SDS011;13429;48.816;9.118;2022-07-23T10:39:29;9.18;;;5.03;;
25531;SDS011;13429;48.816;9.118;2022-07-23T10:42:15;10.40;;;6.22;;
25531;SDS011;13429;48.816;9.118;2022-07-23T10:44:46;6.32;;;5.70;;
25531;SDS011;13429;48.816;9.118;2022-07-23T10:47:13;7.63;;;5.05;;
25531;SDS011;13429;48.816;9.118;2022-07-23T10:49:52;9.88;;;5.40;;
25531;SDS011;13429;48.816;9.118;2022-07-23T10:54:48;8.02;;;5.65;;
25531;SDS011;13429;48.816;9.118;2022-07-23T10:57:16;6.28;;;4.03;;
25531;SDS011;13429;48.816;9.118;2022-07-23T11:02:29;4.95;;;4.45;;
25531;SDS011;13429;48.816;9.118;2022-07-23T11:04:59;6.03;;;4.45;;
25531;SDS011;13429;48.816;9.118;2022-07-23T11:07:25;5.22;;;4.50;;
25531;SDS011;13429;48.816;9.118;2022-07-23T11:09:51;5.72;;;4.65;;
25531;SDS011;13429;48.816;9.118;2022-07-23T11:17:26;6.03;;;5.03;;
25531;SDS011;13429;48.816;9.118;2022-07-23T11:22:38;8.10;;;5.40;;
25531;SDS011;13429;48.816;9.118;2022-07-23T11:25:04;5.55;;;4.22;;
25531;SDS011;13429;48.816;9.118;2022-07-23T11:27:44;7.22;;;5.50;;
25531;SDS011;13429;48.816;9.118;2022-07-23T11:30:12;6.38;;;4.93;;
25531;SDS011;13429;48.816;9.118;2022-07-23T11:35:35;7.20;;;5.75;;
25531;SDS011;13429;48.816;9.118;2022-07-23T11:38:08;6.35;;;4.65;;
25531;SDS011;13429;48.816;9.118;2022-07-23T11:40:38;6.20;;;5.57;;
25531;SDS011;13429;48.816;9.118;2022-07-23T11:43:05;5.20;;;4.57;;
25531;SDS011;13429;48.816;9.118;2022-07-23T11:45:33;7.28;;;5.30;;
25531;SDS011;13429;48.816;9.118;2022-07-23T11:47:59;10.63;;;5.50;;
25531;SDS011;13429;48.816;9.118;2022-07-23T11:50:25;7.65;;;4.75;;
25531;SDS011;13429;48.816;9.118;2022-07-23T11:52:52;6.13;;;5.07;;
25531;SDS011;13429;48.816;9.118;2022-07-23T11:55:18;6.00;;;5.28;;
25531;SDS011;13429;48.816;9.118;2022-07-23T11:57:44;6.25;;;5.53;;
25531;SDS011;13429;48.816;9.118;2022-07-23T12:00:20;8.15;;;5.15;;
25531;SDS011;13429;48.816;9.118;2022-07-23T12:02:48;6.25;;;4.93;;
25531;SDS011;13429;48.816;9.118;2022-07-23T12:05:15;5.30;;;4.80;;
25531;SDS011;13429;48.816;9.118;2022-07-23T12:07:42;5.90;;;5.00;;
25531;SDS011;13429;48.816;9.118;2022-07-23T12:12:40;5.40;;;4.85;;
25531;SDS011;13429;48.816;9.118;2022-07-23T12:15:06;7.55;;;5.72;;
25531;SDS011;13429;48.816;9.118;2022-07-23T12:17:34;8.25;;;5.63;;
25531;SDS011;13429;48.816;9.118;2022-07-23T12:20:00;6.72;;;5.78;;
25531;SDS011;13429;48.816;9.118;2022-07-23T12:22:36;6.20;;;5.40;;
25531;SDS011;13429;48.816;9.118;2022-07-23T12:25:06;7.47;;;5.72;;
25531;SDS011;13429;48.816;9.118;2022-07-23T12:29:59;7.88;;;5.38;;
25531;SDS011;13429;48.816;9.118;2022-07-23T12:32:26;6.85;;;5.35;;
25531;SDS011;13429;48.816;9.118;2022-07-23T12:35:03;5.90;;;5.30;;
25531;SDS011;13429;48.816;9.118;2022-07-23T12:37:31;6.93;;;5.40;;
25531;SDS011;13429;48.816;9.118;2022-07-23T12:39:57;5.95;;;5.13;;
25531;SDS011;13429;48.816;9.118;2022-07-23T12:42:23;9.02;;;5.55;;
25531;SDS011;13429;48.816;9.118;2022-07-23T12:45:08;6.32;;;5.38;;
25531;SDS011;13429;48.816;9.118;2022-07-23T12:53:05;7.32;;;5.53;;
25531;SDS011;13429;48.816;9.118;2022-07-23T12:55:31;7.57;;;6.00;;
25531;SDS011;13429;48.816;9.118;2022-07-23T13:05:51;9.65;;;5.32;;
25531;SDS011;13429;48.816;9.118;2022-07-23T13:08:17;5.95;;;5.35;;
25531;SDS011;13429;48.816;9.118;2022-07-23T13:10:43;6.80;;;5.57;;
25531;SDS011;13429;48.816;9.118;2022-07-23T13:13:13;6.40;;;5.33;;
25531;SDS011;13429;48.816;9.118;2022-07-23T13:15:39;6.30;;;5.65;;
25531;SDS011;13429;48.816;9.118;2022-07-23T13:18:05;7.45;;;6.30;;
25531;SDS011;13429;48.816;9.118;2022-07-23T13:20:31;6.93;;;5.32;;
25531;SDS011;13429;48.816;9.118;2022-07-23T13:22:59;7.90;;;5.43;;
25531;SDS011;13429;48.816;9.118;2022-07-23T13:25:25;6.55;;;5.65;;
25531;SDS011;13429;48.816;9.118;2022-07-23T13:27:51;7.53;;;5.65;;
25531;SDS011;13429;48.816;9.118;2022-07-23T13:30:17;6.95;;;6.22;;
25531;SDS011;13429;48.816;9.118;2022-07-23T13:32:43;11.93;;;6.70;;
25531;SDS011;13429;48.816;9.118;2022-07-23T13:35:09;9.18;;;5.80;;
25531;SDS011;13429;48.816;9.118;2022-07-23T13:37:36;7.93;;;6.50;;
25531;SDS011;13429;48.816;9.118;2022-07-23T13:40:02;7.78;;;6.03;;
25531;SDS011;13429;48.816;9.118;2022-07-23T13:42:29;7.22;;;6.00;;
25531;SDS011;13429;48.816;9.118;2022-07-23T13:44:55;9.82;;;6.82;;
25531;SDS011;13429;48.816;9.118;2022-07-23T13:47:21;7.05;;;6.35;;
25531;SDS011;13429;48.816;9.118;2022-07-23T13:49:47;8.13;;;5.90;;
25531;SDS011;13429;48.816;9.118;2022-07-23T13:52:13;6.65;;;5.97;;
25531;SDS011;13429;48.816;9.118;2022-07-23T13:54:39;7.60;;;6.45;;
25531;SDS011;13429;48.816;9.118;2022-07-23T13:57:05;6.70;;;5.80;;
25531;SDS011;13429;48.816;9.118;2022-07-23T13:59:31;7.60;;;5.50;;
25531;SDS011;13429;48.816;9.118;2022-07-23T14:01:57;6.68;;;6.05;;
25531;SDS011;13429;48.816;9.118;2022-07-23T14:04:23;6.88;;;5.70;;
25531;SDS011;13429;48.816;9.118;2022-07-23T14:06:49;6.43;;;5.82;;
25531;SDS011;13429;48.816;9.118;2022-07-23T14:09:15;6.53;;;5.65;;
25531;SDS011;13429;48.816;9.118;2022-07-23T14:11:41;8.20;;;5.13;;
25531;SDS011;13429;48.816;9.118;2022-07-23T14:14:07;6.75;;;6.07;;
25531;SDS011;13429;48.816;9.118;2022-07-23T14:16:32;9.02;;;7.40;;
25531;SDS011;13429;48.816;9.118;2022-07-23T14:18:58;7.45;;;5.60;;
25531;SDS011;13429;48.816;9.118;2022-07-23T14:21:24;6.90;;;6.03;;
25531;SDS011;13429;48.816;9.118;2022-07-23T14:23:50;8.23;;;5.85;;
25531;SDS011;13429;48.816;9.118;2022-07-23T14:26:16;7.95;;;6.07;;
25531;SDS011;13429;48.816;9.118;2022-07-23T14:28:42;7.00;;;5.75;;
25531;SDS011;13429;48.816;9.118;2022-07-23T14:31:08;6.68;;;5.97;;
25531;SDS011;13429;48.816;9.118;2022-07-23T14:33:34;8.02;;;5.53;;
25531;SDS011;13429;48.816;9.118;2022-07-23T14:36:00;5.93;;;4.90;;
25531;SDS011;13429;48.816;9.118;2022-07-23T14:38:26;6.70;;;5.80;;
25531;SDS011;13429;48.816;9.118;2022-07-23T14:40:52;6.53;;;5.28;;
25531;SDS011;13429;48.816;9.118;2022-07-23T14:43:18;6.70;;;5.15;;
25531;SDS011;13429;48.816;9.118;2022-07-23T14:45:44;6.00;;;5.07;;
25531;SDS011;13429;48.816;9.118;2022-07-23T14:48:10;5.90;;;5.30;;
25531;SDS011;13429;48.816;9.118;2022-07-23T14:50:36;6.75;;;5.70;;
25531;SDS011;13429;48.816;9.118;2022-07-23T14:53:02;6.65;;;5.97;;
25531;SDS011;13429;48.816;9.118;2022-07-23T14:55:30;7.05;;;5.57;;
25531;SDS011;13429;48.816;9.118;2022-07-23T14:57:56;6.97;;;5.63;;
25531;SDS011;13429;48.816;9.118;2022-07-23T15:00:22;8.50;;;5.85;;
25531;SDS011;13429;48.816;9.118;2022-07-23T15:02:48;6.85;;;5.28;;
25531;SDS011;13429;48.816;9.118;2022-07-23T15:05:14;7.18;;;6.00;;
25531;SDS011;13429;48.816;9.118;2022-07-23T15:07:40;7.20;;;5.43;;
25531;SDS011;13429;48.816;9.118;2022-07-23T15:10:06;5.85;;;5.28;;
25531;SDS011;13429;48.816;9.118;2022-07-23T15:12:32;9.07;;;6.22;;
25531;SDS011;13429;48.816;9.118;2022-07-23T15:14:58;6.78;;;6.05;;
25531;SDS011;13429;48.816;9.118;2022-07-23T15:17:24;7.38;;;6.13;;
25531;SDS011;13429;48.816;9.118;2022-07-23T15:19:50;6.43;;;5.35;;
25531;SDS011;13429;48.816;9.118;2022-07-23T15:22:17;6.55;;;5.93;;
25531;SDS011;13429;48.816;9.118;2022-07-23T15:24:43;7.93;;;6.80;;
25531;SDS011;13429;48.816;9.118;2022-07-23T15:27:09;7.72;;;5.78;;